createdAt,value
2022-09-21T00:00:57.071Z,8.10
2022-09-21T00:01:57.070Z,12.90
2022-09-21T00:02:56.994Z,9.30
2022-09-21T00:03:56.983Z,12.00
2022-09-21T00:04:56.957Z,14.60
2022-09-21T00:05:56.956Z,9.70
2022-09-21T00:06:56.927Z,8.60
2022-09-21T00:07:56.927Z,11.80
2022-09-21T00:08:56.924Z,9.50
2022-09-21T00:09:56.907Z,12.10
2022-09-21T00:10:56.889Z,10.60
2022-09-21T00:11:58.394Z,13.80
2022-09-21T00:12:56.865Z,10.90
2022-09-21T00:13:56.903Z,12.30
2022-09-21T00:14:56.837Z,10.80
2022-09-21T00:15:56.837Z,10.20
2022-09-21T00:16:57.009Z,10.10
2022-09-21T00:17:56.807Z,13.80
2022-09-21T00:18:56.815Z,9.40
2022-09-21T00:19:56.839Z,9.90
2022-09-21T00:20:56.924Z,8.50
2022-09-21T00:21:56.766Z,11.00
2022-09-21T00:22:56.758Z,10.30
2022-09-21T00:23:56.766Z,13.40
2022-09-21T00:24:56.728Z,10.70
2022-09-21T00:25:56.728Z,9.50
2022-09-21T00:26:56.720Z,11.90
2022-09-21T00:27:56.716Z,16.20
2022-09-21T00:28:56.797Z,12.00
2022-09-21T00:29:56.679Z,11.30
2022-09-21T00:30:56.658Z,7.30
2022-09-21T00:31:56.704Z,9.00
2022-09-21T00:32:56.649Z,8.30
2022-09-21T00:33:56.647Z,11.30
2022-09-21T00:34:56.628Z,6.50
2022-09-21T00:35:56.617Z,8.20
2022-09-21T00:36:56.607Z,7.80
2022-09-21T00:37:56.590Z,8.10
2022-09-21T00:38:56.591Z,7.30
2022-09-21T00:39:56.569Z,7.30
2022-09-21T00:40:56.623Z,7.90
2022-09-21T00:41:56.563Z,10.30
2022-09-21T00:42:56.763Z,10.10
2022-09-21T00:43:56.604Z,6.70
2022-09-21T00:44:56.532Z,9.00
2022-09-21T00:45:56.535Z,9.00
2022-09-21T00:46:56.501Z,10.60
2022-09-21T00:47:56.481Z,9.20
2022-09-21T00:48:56.561Z,10.00
2022-09-21T00:49:56.472Z,11.40
2022-09-21T00:50:56.564Z,9.40
2022-09-21T00:51:56.431Z,13.10
2022-09-21T00:52:56.433Z,11.60
2022-09-21T00:53:56.451Z,11.40
2022-09-21T00:54:56.403Z,13.70
2022-09-21T00:55:56.403Z,10.80
2022-09-21T00:56:56.383Z,10.50
2022-09-21T00:57:56.375Z,9.90
2022-09-21T00:58:56.483Z,10.90
2022-09-21T00:59:56.372Z,13.80
2022-09-21T01:00:56.373Z,12.30
2022-09-21T01:01:56.393Z,9.40
2022-09-21T01:02:56.313Z,12.40
2022-09-21T01:03:56.310Z,8.30
2022-09-21T01:04:56.307Z,13.40
2022-09-21T01:05:56.293Z,8.70
2022-09-21T01:06:56.264Z,9.20
2022-09-21T01:07:56.273Z,10.00
2022-09-21T01:08:56.255Z,13.30
2022-09-21T01:09:56.253Z,11.00
2022-09-21T01:10:56.234Z,16.40
2022-09-21T01:11:56.224Z,13.00
2022-09-21T01:12:56.204Z,11.20
2022-09-21T01:13:56.256Z,13.50
2022-09-21T01:14:56.234Z,12.90
2022-09-21T01:15:56.186Z,10.00
2022-09-21T01:16:56.157Z,9.90
2022-09-21T01:17:56.156Z,9.20
2022-09-21T01:18:56.135Z,12.80
2022-09-21T01:19:56.185Z,7.70
2022-09-21T01:20:56.138Z,12.90
2022-09-21T01:21:56.106Z,12.60
2022-09-21T01:22:56.098Z,13.10
2022-09-21T01:23:56.087Z,8.40
2022-09-21T01:24:56.077Z,10.70
2022-09-21T01:25:56.105Z,11.50
2022-09-21T01:26:56.056Z,7.90
2022-09-21T01:27:56.046Z,10.10
2022-09-21T01:28:56.174Z,12.70
2022-09-21T01:29:56.017Z,11.70
2022-09-21T01:30:56.017Z,9.00
2022-09-21T01:31:55.997Z,11.20
2022-09-21T01:32:56.027Z,11.50
2022-09-21T01:33:55.988Z,8.80
2022-09-21T01:34:55.966Z,12.30
2022-09-21T01:35:56.007Z,11.10
2022-09-21T01:36:55.939Z,12.30
2022-09-21T01:37:55.963Z,7.20
2022-09-21T01:38:55.919Z,9.40
2022-09-21T01:39:55.907Z,12.30
2022-09-21T01:40:55.969Z,12.60
2022-09-21T01:41:55.899Z,9.90
2022-09-21T01:42:55.875Z,11.20
2022-09-21T01:43:55.890Z,8.70
2022-09-21T01:44:55.858Z,9.80
2022-09-21T01:45:55.889Z,11.20
2022-09-21T01:46:55.837Z,15.80
2022-09-21T01:47:55.834Z,12.20
2022-09-21T01:48:55.809Z,16.00
2022-09-21T01:49:55.829Z,12.60
2022-09-21T01:50:55.818Z,12.40
2022-09-21T01:51:55.780Z,12.00
2022-09-21T01:52:55.759Z,9.70
2022-09-21T01:53:55.759Z,12.10
2022-09-21T01:54:55.739Z,10.70
2022-09-21T01:55:55.761Z,10.00
2022-09-21T01:56:55.720Z,15.10
2022-09-21T01:57:55.720Z,11.20
2022-09-21T01:58:55.700Z,11.40
2022-09-21T01:59:55.700Z,9.80
2022-09-21T02:00:55.746Z,9.00
2022-09-21T02:01:55.703Z,10.10
2022-09-21T02:02:55.658Z,9.20
2022-09-21T02:03:55.651Z,11.10
2022-09-21T02:04:55.631Z,9.40
2022-09-21T02:05:55.641Z,9.20
2022-09-21T02:06:55.692Z,10.90
2022-09-21T02:07:55.671Z,12.60
2022-09-21T02:08:55.599Z,9.00
2022-09-21T02:09:55.579Z,9.00
2022-09-21T02:10:55.607Z,7.90
2022-09-21T02:11:55.563Z,9.60
2022-09-21T02:12:55.545Z,8.20
2022-09-21T02:13:55.596Z,10.90
2022-09-21T02:14:55.554Z,10.30
2022-09-21T02:15:55.547Z,10.70
2022-09-21T02:16:55.543Z,9.80
2022-09-21T02:17:55.492Z,9.80
2022-09-21T02:18:55.491Z,7.40
2022-09-21T02:19:55.473Z,9.30
2022-09-21T02:20:55.494Z,9.70
2022-09-21T02:21:55.466Z,6.90
2022-09-21T02:22:55.458Z,10.80
2022-09-21T02:23:55.436Z,9.40
2022-09-21T02:24:55.414Z,9.00
2022-09-21T02:25:55.464Z,10.60
2022-09-21T02:26:55.403Z,9.80
2022-09-21T02:27:55.384Z,9.40
2022-09-21T02:28:55.455Z,9.90
2022-09-21T02:29:55.394Z,9.30
2022-09-21T02:30:55.374Z,11.60
2022-09-21T02:31:55.345Z,11.70
2022-09-21T02:32:55.333Z,6.50
2022-09-21T02:33:55.324Z,8.40
2022-09-21T02:34:55.306Z,9.50
2022-09-21T02:35:55.302Z,8.30
2022-09-21T02:36:55.294Z,9.00
2022-09-21T02:37:55.286Z,8.80
2022-09-21T02:38:55.412Z,9.60
2022-09-21T02:39:55.246Z,9.10
2022-09-21T02:40:55.255Z,9.60
2022-09-21T02:41:55.256Z,7.70
2022-09-21T02:42:55.216Z,8.70
2022-09-21T02:43:55.261Z,8.20
2022-09-21T02:44:55.196Z,8.40
2022-09-21T02:45:55.196Z,8.50
2022-09-21T02:46:55.365Z,7.50
2022-09-21T02:47:55.167Z,6.40
2022-09-21T02:48:55.147Z,10.60
2022-09-21T02:49:55.147Z,8.90
2022-09-21T02:50:55.135Z,7.50
2022-09-21T02:51:55.127Z,7.40
2022-09-21T02:52:55.108Z,10.50
2022-09-21T02:53:55.098Z,8.00
2022-09-21T02:54:55.087Z,9.00
2022-09-21T02:55:56.589Z,10.20
2022-09-21T02:56:55.077Z,10.00
2022-09-21T02:57:55.058Z,9.50
2022-09-21T02:58:55.095Z,11.60
2022-09-21T02:59:55.046Z,14.10
2022-09-21T03:00:55.056Z,11.70
2022-09-21T03:01:55.091Z,14.20
2022-09-21T03:02:55.000Z,12.80
2022-09-21T03:03:54.988Z,9.40
2022-09-21T03:04:54.998Z,8.50
2022-09-21T03:05:54.968Z,9.20
2022-09-21T03:06:54.976Z,9.80
2022-09-21T03:07:54.948Z,9.50
2022-09-21T03:08:54.967Z,11.60
2022-09-21T03:09:54.917Z,14.20
2022-09-21T03:10:54.959Z,14.40
2022-09-21T03:11:54.910Z,12.40
2022-09-21T03:12:54.879Z,14.80
2022-09-21T03:13:54.917Z,12.70
2022-09-21T03:14:54.859Z,6.50
2022-09-21T03:15:55.006Z,12.10
2022-09-21T03:16:54.860Z,12.60
2022-09-21T03:17:54.840Z,11.50
2022-09-21T03:18:54.820Z,11.00
2022-09-21T03:19:54.880Z,11.60
2022-09-21T03:20:54.810Z,10.20
2022-09-21T03:21:54.811Z,15.40
2022-09-21T03:22:54.781Z,9.20
2022-09-21T03:23:54.780Z,10.00
2022-09-21T03:24:54.761Z,10.60
2022-09-21T03:25:54.753Z,8.00
2022-09-21T03:26:54.741Z,9.10
2022-09-21T03:27:54.743Z,7.50
2022-09-21T03:28:54.854Z,9.30
2022-09-21T03:29:57.663Z,10.20
2022-09-21T03:30:55.710Z,11.00
2022-09-21T03:31:54.696Z,11.00
2022-09-21T03:32:54.671Z,9.40
2022-09-21T03:33:54.661Z,9.40
2022-09-21T03:34:54.642Z,11.30
2022-09-21T03:35:54.642Z,11.50
2022-09-21T03:36:54.633Z,7.70
2022-09-21T03:37:54.613Z,8.60
2022-09-21T03:38:54.613Z,10.90
2022-09-21T03:39:54.603Z,11.10
2022-09-21T03:40:54.583Z,7.60
2022-09-21T03:41:54.584Z,9.40
2022-09-21T03:42:54.553Z,9.60
2022-09-21T03:43:54.602Z,7.90
2022-09-21T03:44:54.563Z,7.30
2022-09-21T03:45:54.648Z,7.10
2022-09-21T03:46:54.533Z,6.60
2022-09-21T03:47:54.505Z,9.10
2022-09-21T03:48:54.493Z,9.60
2022-09-21T03:49:54.486Z,8.40
2022-09-21T03:50:54.493Z,7.50
2022-09-21T03:51:54.473Z,12.40
2022-09-21T03:52:54.445Z,10.00
2022-09-21T03:53:54.446Z,13.50
2022-09-21T03:54:54.449Z,7.40
2022-09-21T03:55:54.426Z,8.70
2022-09-21T03:56:54.417Z,8.30
2022-09-21T03:57:54.395Z,12.10
2022-09-21T03:58:54.460Z,9.10
2022-09-21T03:59:54.377Z,8.30
2022-09-21T04:00:54.355Z,9.90
2022-09-21T04:01:54.478Z,6.60
2022-09-21T04:02:54.390Z,6.40
2022-09-21T04:03:54.529Z,8.30
2022-09-21T04:04:54.317Z,12.20
2022-09-21T04:05:54.318Z,15.50
2022-09-21T04:06:54.305Z,13.30
2022-09-21T04:07:54.297Z,12.60
2022-09-21T04:08:54.275Z,19.90
2022-09-21T04:09:54.266Z,12.80
2022-09-21T04:10:54.255Z,14.00
2022-09-21T04:11:54.267Z,22.40
2022-09-21T04:12:54.227Z,42.30
2022-09-21T04:13:54.502Z,24.40
2022-09-21T04:14:54.206Z,63.20
2022-09-21T04:15:54.221Z,22.90
2022-09-21T04:16:54.205Z,13.70
2022-09-21T04:17:54.217Z,19.50
2022-09-21T04:18:54.165Z,21.10
2022-09-21T04:19:54.158Z,48.00
2022-09-21T04:20:54.148Z,34.50
2022-09-21T04:21:54.387Z,38.20
2022-09-21T04:22:54.127Z,64.20
2022-09-21T04:23:54.240Z,35.00
2022-09-21T04:24:54.098Z,33.50
2022-09-21T04:25:54.098Z,36.70
2022-09-21T04:26:54.090Z,32.00
2022-09-21T04:27:54.068Z,37.90
2022-09-21T04:28:54.059Z,38.00
2022-09-21T04:29:54.051Z,32.20
2022-09-21T04:30:54.067Z,23.70
2022-09-21T04:31:54.072Z,33.10
2022-09-21T04:32:54.023Z,24.90
2022-09-21T04:33:53.999Z,16.60
2022-09-21T04:34:54.000Z,25.60
2022-09-21T04:35:54.001Z,59.60
2022-09-21T04:36:53.971Z,50.70
2022-09-21T04:37:53.971Z,47.10
2022-09-21T04:38:53.951Z,50.40
2022-09-21T04:39:53.934Z,73.20
2022-09-21T04:40:53.931Z,37.90
2022-09-21T04:41:53.935Z,38.40
2022-09-21T04:42:53.914Z,64.80
2022-09-21T04:43:53.891Z,68.50
2022-09-21T04:44:53.882Z,74.60
2022-09-21T04:45:53.918Z,54.70
2022-09-21T04:46:53.890Z,109.30
2022-09-21T04:47:53.851Z,95.20
2022-09-21T04:48:53.840Z,39.40
2022-09-21T04:49:53.822Z,46.30
2022-09-21T04:50:53.824Z,64.20
2022-09-21T04:51:53.821Z,48.60
2022-09-21T04:52:53.806Z,48.80
2022-09-21T04:53:53.783Z,26.80
2022-09-21T04:54:53.775Z,28.10
2022-09-21T04:55:53.992Z,55.80
2022-09-21T04:56:53.771Z,52.10
2022-09-21T04:57:53.750Z,49.90
2022-09-21T04:58:53.733Z,44.60
2022-09-21T04:59:53.713Z,47.20
2022-09-21T05:00:53.703Z,62.20
2022-09-21T05:01:53.711Z,120.00
2022-09-21T05:02:53.704Z,116.60
2022-09-21T05:03:53.704Z,70.70
2022-09-21T05:04:53.667Z,20.30
2022-09-21T05:05:53.652Z,23.30
2022-09-21T05:06:53.664Z,35.10
2022-09-21T05:07:53.623Z,33.80
2022-09-21T05:08:53.616Z,54.20
2022-09-21T05:09:53.604Z,35.00
2022-09-21T05:10:53.765Z,85.90
2022-09-21T05:11:53.585Z,69.00
2022-09-21T05:12:53.946Z,93.80
2022-09-21T05:13:53.565Z,121.90
2022-09-21T05:14:53.557Z,88.90
2022-09-21T05:15:53.570Z,26.30
2022-09-21T05:16:53.576Z,56.50
2022-09-21T05:17:53.527Z,85.10
2022-09-21T05:18:53.525Z,69.60
2022-09-21T05:19:53.504Z,157.20
2022-09-21T05:20:54.265Z,73.40
2022-09-21T05:21:54.486Z,72.50
2022-09-21T05:22:53.499Z,59.20
2022-09-21T05:23:53.466Z,39.70
2022-09-21T05:24:53.443Z,93.90
2022-09-21T05:25:53.436Z,69.70
2022-09-21T05:26:53.447Z,95.20
2022-09-21T05:27:53.416Z,84.10
2022-09-21T05:28:53.398Z,94.30
2022-09-21T05:29:53.392Z,66.30
2022-09-21T05:31:14.134Z,73.20
2022-09-21T05:31:54.500Z,58.50
2022-09-21T05:32:53.377Z,112.20
2022-09-21T05:33:53.347Z,43.70
2022-09-21T05:34:53.352Z,35.60
2022-09-21T05:35:53.320Z,38.00
2022-09-21T05:36:53.308Z,45.10
2022-09-21T05:37:53.388Z,60.30
2022-09-21T05:38:53.298Z,29.60
2022-09-21T05:39:53.279Z,18.00
2022-09-21T05:40:53.270Z,41.80
2022-09-21T05:41:53.257Z,39.30
2022-09-21T05:42:53.248Z,22.80
2022-09-21T05:43:53.249Z,25.30
2022-09-21T05:44:53.220Z,100.60
2022-09-21T05:45:53.229Z,78.30
2022-09-21T05:46:56.278Z,75.70
2022-09-21T05:47:53.210Z,77.00
2022-09-21T05:48:53.180Z,77.40
2022-09-21T05:49:53.170Z,87.20
2022-09-21T05:50:53.149Z,55.20
2022-09-21T05:51:53.161Z,91.40
2022-09-21T05:52:53.131Z,89.40
2022-09-21T05:53:53.140Z,67.50
2022-09-21T05:54:53.175Z,46.60
2022-09-21T05:55:53.111Z,67.00
2022-09-21T05:56:53.102Z,52.30
2022-09-21T05:57:53.092Z,67.90
2022-09-21T05:58:53.072Z,62.10
2022-09-21T05:59:53.062Z,47.50
2022-09-21T06:00:54.678Z,61.30
2022-09-21T06:01:53.541Z,67.60
2022-09-21T06:02:53.053Z,73.00
2022-09-21T06:03:53.082Z,75.10
2022-09-21T06:04:53.256Z,79.30
2022-09-21T06:05:52.994Z,73.70
2022-09-21T06:06:53.007Z,57.10
2022-09-21T06:07:53.088Z,71.50
2022-09-21T06:08:52.974Z,44.50
2022-09-21T06:09:52.978Z,52.50
2022-09-21T06:10:52.945Z,46.80
2022-09-21T06:11:52.943Z,42.70
2022-09-21T06:12:52.913Z,40.80
2022-09-21T06:13:52.913Z,59.00
2022-09-21T06:14:52.901Z,71.10
2022-09-21T06:15:52.903Z,74.50
2022-09-21T06:16:52.921Z,83.10
2022-09-21T06:17:52.869Z,67.90
2022-09-21T06:18:52.855Z,69.30
2022-09-21T06:19:52.845Z,88.90
2022-09-21T06:20:52.843Z,63.90
2022-09-21T06:21:52.950Z,70.80
2022-09-21T06:22:52.995Z,65.40
2022-09-21T06:23:52.794Z,67.80
2022-09-21T06:24:52.783Z,46.10
2022-09-21T06:25:57.525Z,62.50
2022-09-21T06:26:53.788Z,35.10
2022-09-21T06:27:52.755Z,37.00
2022-09-21T06:28:52.736Z,41.80
2022-09-21T06:29:52.757Z,48.20
2022-09-21T06:30:52.812Z,42.30
2022-09-21T06:31:52.734Z,56.60
2022-09-21T06:32:52.697Z,52.90
2022-09-21T06:33:52.686Z,45.90
2022-09-21T06:34:52.688Z,29.60
2022-09-21T06:35:52.665Z,30.30
2022-09-21T06:36:52.667Z,44.50
2022-09-21T06:37:52.667Z,33.30
2022-09-21T06:38:52.650Z,37.00
2022-09-21T06:39:52.639Z,39.60
2022-09-21T06:40:52.709Z,31.40
2022-09-21T06:41:52.627Z,50.00
2022-09-21T06:42:52.588Z,44.00
2022-09-21T06:43:52.638Z,50.60
2022-09-21T06:44:52.570Z,74.90
2022-09-21T06:45:52.573Z,53.00
2022-09-21T06:46:52.561Z,31.00
2022-09-21T06:47:52.558Z,72.00
2022-09-21T06:48:52.601Z,39.10
2022-09-21T06:49:52.530Z,42.90
2022-09-21T06:50:52.501Z,47.80
2022-09-21T06:51:52.500Z,39.60
2022-09-21T06:52:52.499Z,42.10
2022-09-21T06:53:52.509Z,40.00
2022-09-21T06:54:52.460Z,52.90
2022-09-21T06:55:52.469Z,32.60
2022-09-21T06:56:54.110Z,42.50
2022-09-21T06:57:52.420Z,38.80
2022-09-21T06:58:52.410Z,28.80
2022-09-21T06:59:52.400Z,30.30
2022-09-21T07:00:52.482Z,32.50
2022-09-21T07:01:52.533Z,32.90
2022-09-21T07:02:52.382Z,38.30
2022-09-21T07:03:52.384Z,39.00
2022-09-21T07:04:52.376Z,38.80
2022-09-21T07:05:52.362Z,38.10
2022-09-21T07:06:52.342Z,41.60
2022-09-21T07:07:53.711Z,48.30
2022-09-21T07:10:21.073Z,28.00
2022-09-21T07:10:53.273Z,32.10
2022-09-21T07:11:52.286Z,32.00
2022-09-21T07:12:52.252Z,35.10
2022-09-21T07:13:52.252Z,29.30
2022-09-21T07:14:52.233Z,35.20
2022-09-21T07:15:53.423Z,37.80
2022-09-21T07:16:52.237Z,39.40
2022-09-21T07:17:52.646Z,46.30
2022-09-21T07:18:53.185Z,39.80
2022-09-21T07:19:52.184Z,37.40
2022-09-21T07:20:52.189Z,34.70
2022-09-21T07:21:52.174Z,37.30
2022-09-21T07:22:52.169Z,35.80
2022-09-21T07:23:52.153Z,32.20
2022-09-21T07:24:52.135Z,41.40
2022-09-21T07:25:52.124Z,32.70
2022-09-21T07:26:52.136Z,37.50
2022-09-21T07:27:52.102Z,32.80
2022-09-21T07:28:52.077Z,28.90
2022-09-21T07:29:52.077Z,28.70
2022-09-21T07:30:52.071Z,31.90
2022-09-21T07:31:52.115Z,34.10
2022-09-21T07:32:52.044Z,32.30
2022-09-21T07:33:52.020Z,28.00
2022-09-21T07:34:52.138Z,29.00
2022-09-21T07:35:52.021Z,31.30
2022-09-21T07:36:52.008Z,30.80
2022-09-21T07:37:51.986Z,57.20
2022-09-21T07:38:51.986Z,29.60
2022-09-21T07:39:52.022Z,33.90
2022-09-21T07:40:51.996Z,39.60
2022-09-21T07:41:51.948Z,29.00
2022-09-21T07:42:51.996Z,30.30
2022-09-21T07:43:52.008Z,26.40
2022-09-21T07:45:03.406Z,29.30
2022-09-21T07:45:53.011Z,35.90
2022-09-21T07:46:51.899Z,26.80
2022-09-21T07:47:51.871Z,24.80
2022-09-21T07:48:51.891Z,33.00
2022-09-21T07:49:51.849Z,28.40
2022-09-21T07:50:51.859Z,26.60
2022-09-21T07:51:51.820Z,33.80
2022-09-21T07:52:51.831Z,32.40
2022-09-21T07:53:51.821Z,26.50
2022-09-21T07:54:51.792Z,24.50
2022-09-21T07:55:51.812Z,33.90
2022-09-21T07:56:51.791Z,27.50
2022-09-21T07:57:51.753Z,38.70
2022-09-21T07:58:51.761Z,25.20
2022-09-21T07:59:51.752Z,32.20
2022-09-21T08:00:51.785Z,22.50
2022-09-21T08:01:51.762Z,24.60
2022-09-21T08:02:51.712Z,29.40
2022-09-21T08:03:51.693Z,25.90
2022-09-21T08:04:51.684Z,24.60
2022-09-21T08:05:51.713Z,25.90
2022-09-21T08:06:51.683Z,44.10
2022-09-21T08:07:51.665Z,23.30
2022-09-21T08:08:56.737Z,35.10
2022-09-21T08:09:52.625Z,32.10
2022-09-21T08:10:51.628Z,29.60
2022-09-21T08:11:51.687Z,30.80
2022-09-21T08:12:51.595Z,30.40
2022-09-21T08:13:51.596Z,29.20
2022-09-21T08:14:51.610Z,38.90
2022-09-21T08:15:51.557Z,25.20
2022-09-21T08:16:51.632Z,32.70
2022-09-21T08:17:51.558Z,25.10
2022-09-21T08:18:51.583Z,23.80
2022-09-21T08:19:51.520Z,25.60
2022-09-21T08:20:51.517Z,30.30
2022-09-21T08:21:56.936Z,38.50
2022-09-21T08:22:52.486Z,25.90
2022-09-21T08:23:51.467Z,23.50
2022-09-21T08:24:51.467Z,28.70
2022-09-21T08:25:51.470Z,29.90
2022-09-21T08:26:51.460Z,25.30
2022-09-21T08:27:51.439Z,24.40
2022-09-21T08:28:51.497Z,28.20
2022-09-21T08:29:51.410Z,26.40
2022-09-21T08:30:51.397Z,29.20
2022-09-21T08:31:51.412Z,27.10
2022-09-21T08:32:52.105Z,26.20
2022-09-21T08:33:51.361Z,22.90
2022-09-21T08:34:51.371Z,23.90
2022-09-21T08:35:51.350Z,27.50
2022-09-21T08:36:55.311Z,26.70
2022-09-21T08:37:51.320Z,22.60
2022-09-21T08:38:51.312Z,23.70
2022-09-21T08:39:51.292Z,27.00
2022-09-21T08:40:51.295Z,23.60
2022-09-21T08:41:51.282Z,24.00
2022-09-21T08:42:51.352Z,25.30
2022-09-21T08:43:51.253Z,22.80
2022-09-21T08:44:51.244Z,22.70
2022-09-21T08:45:51.223Z,23.70
2022-09-21T08:46:51.262Z,24.80
2022-09-21T08:47:51.224Z,26.50
2022-09-21T08:48:51.195Z,25.10
2022-09-21T08:49:51.185Z,29.80
2022-09-21T08:50:51.178Z,22.60
2022-09-21T08:51:51.159Z,24.40
2022-09-21T08:52:51.170Z,26.50
2022-09-21T08:53:51.137Z,27.30
2022-09-21T08:54:51.134Z,25.00
2022-09-21T08:55:51.117Z,24.80
2022-09-21T08:57:04.858Z,23.80
2022-09-21T08:57:52.114Z,27.80
2022-09-21T08:58:51.088Z,23.60
2022-09-21T08:59:51.076Z,27.00
2022-09-21T09:00:51.124Z,25.30
2022-09-21T09:01:51.100Z,24.60
2022-09-21T09:02:51.079Z,21.30
2022-09-21T09:03:51.030Z,24.80
2022-09-21T09:04:51.061Z,25.10
2022-09-21T09:05:51.220Z,25.20
2022-09-21T09:06:51.010Z,23.20
2022-09-21T09:07:51.303Z,21.60
2022-09-21T09:08:50.982Z,25.40
2022-09-21T09:09:50.966Z,26.10
2022-09-21T09:10:50.966Z,22.80
2022-09-21T09:11:50.945Z,22.40
2022-09-21T09:12:50.944Z,24.90
2022-09-21T09:13:51.148Z,23.80
2022-09-21T09:14:50.943Z,27.70
2022-09-21T09:15:51.165Z,26.30
2022-09-21T09:16:50.894Z,25.20
2022-09-21T09:17:50.896Z,23.70
2022-09-21T09:18:50.867Z,21.10
2022-09-21T09:19:50.872Z,23.60
2022-09-21T09:20:50.877Z,24.00
2022-09-21T09:21:50.835Z,22.00
2022-09-21T09:22:50.853Z,25.20
2022-09-21T09:23:50.959Z,24.70
2022-09-21T09:24:50.819Z,27.50
2022-09-21T09:25:50.866Z,22.70
2022-09-21T09:26:50.801Z,23.80
2022-09-21T09:27:50.769Z,21.80
2022-09-21T09:28:53.141Z,19.00
2022-09-21T09:29:50.742Z,25.20
2022-09-21T09:30:50.741Z,24.30
2022-09-21T09:31:50.767Z,23.00
2022-09-21T09:32:50.722Z,20.30
2022-09-21T09:33:50.714Z,22.30
2022-09-21T09:34:50.695Z,24.80
2022-09-21T09:35:50.684Z,25.00
2022-09-21T09:36:59.402Z,25.10
2022-09-21T09:37:51.666Z,24.40
2022-09-21T09:38:50.677Z,23.90
2022-09-21T09:39:50.645Z,22.50
2022-09-21T09:40:50.667Z,26.40
2022-09-21T09:41:50.618Z,24.50
2022-09-21T09:42:50.618Z,24.40
2022-09-21T09:43:50.618Z,21.60
2022-09-21T09:44:50.600Z,22.50
2022-09-21T09:45:50.580Z,25.00
2022-09-21T09:46:50.615Z,22.10
2022-09-21T09:47:50.571Z,21.70
2022-09-21T09:48:54.021Z,22.80
2022-09-21T09:49:50.533Z,22.30
2022-09-21T09:50:50.533Z,16.90
2022-09-21T09:51:50.513Z,17.90
2022-09-21T09:52:50.513Z,17.90
2022-09-21T09:53:50.524Z,18.50
2022-09-21T09:54:50.495Z,19.00
2022-09-21T09:55:50.488Z,19.30
2022-09-21T09:56:50.496Z,19.60
2022-09-21T09:57:50.466Z,15.50
2022-09-21T09:58:50.459Z,14.00
2022-09-21T09:59:54.283Z,15.30
2022-09-21T10:00:50.435Z,19.00
2022-09-21T10:01:50.457Z,16.20
2022-09-21T10:02:50.409Z,14.60
2022-09-21T10:03:50.435Z,13.00
2022-09-21T10:04:50.380Z,12.50
2022-09-21T10:05:50.381Z,12.50
2022-09-21T10:06:50.362Z,14.00
2022-09-21T10:07:50.361Z,12.80
2022-09-21T10:08:50.365Z,11.40
2022-09-21T10:09:50.340Z,13.00
2022-09-21T10:10:50.321Z,14.60
2022-09-21T10:11:50.324Z,12.40
2022-09-21T10:12:50.302Z,10.60
2022-09-21T10:13:50.384Z,13.00
2022-09-21T10:14:50.283Z,12.70
2022-09-21T10:15:50.328Z,12.70
2022-09-21T10:16:50.316Z,11.30
2022-09-21T10:17:50.278Z,9.10
2022-09-21T10:18:50.247Z,7.50
2022-09-21T10:19:50.236Z,10.00
2022-09-21T10:20:50.219Z,10.50
2022-09-21T10:21:52.216Z,9.80
2022-09-21T10:22:50.199Z,12.30
2022-09-21T10:23:50.221Z,6.70
2022-09-21T10:24:50.180Z,9.40
2022-09-21T10:25:50.180Z,7.90
2022-09-21T10:26:50.160Z,9.80
2022-09-21T10:27:50.151Z,10.00
2022-09-21T10:28:50.142Z,9.80
2022-09-21T10:29:50.171Z,7.90
2022-09-21T10:30:50.148Z,10.40
2022-09-21T10:31:50.114Z,7.80
2022-09-21T10:32:50.095Z,11.40
2022-09-21T10:33:50.088Z,7.70
2022-09-21T10:34:50.095Z,6.40
2022-09-21T10:35:50.075Z,6.80
2022-09-21T10:36:50.056Z,7.60
2022-09-21T10:37:50.047Z,8.00
2022-09-21T10:38:50.138Z,6.20
2022-09-21T10:39:50.036Z,9.60
2022-09-21T10:40:50.128Z,6.00
2022-09-21T10:41:50.008Z,5.90
2022-09-21T10:42:50.040Z,7.30
2022-09-21T10:43:49.990Z,6.60
2022-09-21T10:44:50.059Z,5.40
2022-09-21T10:45:49.970Z,5.90
2022-09-21T10:46:50.062Z,5.30
2022-09-21T10:47:49.954Z,6.60
2022-09-21T10:48:49.960Z,4.20
2022-09-21T10:49:49.933Z,3.70
2022-09-21T10:50:49.926Z,5.70
2022-09-21T10:51:49.955Z,5.00
2022-09-21T10:52:49.916Z,3.50
2022-09-21T10:53:53.759Z,4.10
2022-09-21T10:54:49.894Z,7.70
2022-09-21T10:56:04.728Z,4.90
2022-09-21T10:56:50.872Z,5.10
2022-09-21T10:57:49.847Z,6.00
2022-09-21T10:58:49.858Z,5.20
2022-09-21T10:59:49.888Z,11.20
2022-09-21T11:00:49.828Z,6.70
2022-09-21T11:01:49.888Z,5.20
2022-09-21T11:02:49.923Z,4.90
2022-09-21T11:03:49.791Z,8.20
2022-09-21T11:04:49.862Z,5.90
2022-09-21T11:05:49.779Z,3.90
2022-09-21T11:06:49.771Z,5.50
2022-09-21T11:07:49.762Z,6.50
2022-09-21T11:08:49.763Z,6.20
2022-09-21T11:09:49.753Z,6.50
2022-09-21T11:10:49.755Z,7.10
2022-09-21T11:11:49.727Z,4.70
2022-09-21T11:12:49.724Z,7.80
2022-09-21T11:13:49.704Z,8.30
2022-09-21T11:14:49.886Z,7.10
2022-09-21T11:15:49.741Z,8.00
2022-09-21T11:16:49.714Z,6.10
2022-09-21T11:17:49.658Z,7.00
2022-09-21T11:18:49.798Z,6.70
2022-09-21T11:19:49.728Z,4.60
2022-09-21T11:20:49.639Z,7.90
2022-09-21T11:21:49.627Z,6.10
2022-09-21T11:22:50.918Z,6.80
2022-09-21T11:23:49.600Z,5.80
2022-09-21T11:24:49.651Z,6.70
2022-09-21T11:25:49.582Z,6.70
2022-09-21T11:26:49.574Z,8.20
2022-09-21T11:27:49.555Z,4.90
2022-09-21T11:28:49.553Z,7.20
2022-09-21T11:29:49.555Z,3.50
2022-09-21T11:30:49.581Z,6.90
2022-09-21T11:31:49.515Z,5.90
2022-09-21T11:32:49.614Z,4.10
2022-09-21T11:33:48.879Z,12.80
2022-09-21T11:34:48.879Z,11.60
2022-09-21T11:35:48.984Z,3.30
2022-09-21T11:36:48.860Z,4.30
2022-09-21T11:37:48.833Z,3.20
2022-09-21T11:38:48.840Z,4.50
2022-09-21T11:39:48.822Z,5.40
2022-09-21T11:40:48.833Z,5.70
2022-09-21T11:41:48.803Z,6.70
2022-09-21T11:42:48.784Z,8.20
2022-09-21T11:43:48.795Z,5.80
2022-09-21T11:44:48.776Z,4.20
2022-09-21T11:45:50.689Z,4.70
2022-09-21T11:46:48.760Z,4.70
2022-09-21T11:47:48.747Z,4.50
2022-09-21T11:48:48.729Z,4.20
2022-09-21T11:49:48.718Z,7.60
2022-09-21T11:50:48.789Z,3.70
2022-09-21T11:51:48.700Z,2.90
2022-09-21T11:52:48.713Z,5.10
2022-09-21T11:53:48.681Z,4.80
2022-09-21T11:54:48.680Z,6.80
2022-09-21T11:55:48.671Z,3.20
2022-09-21T11:56:49.612Z,4.60
2022-09-21T11:57:52.783Z,5.10
2022-09-21T11:58:52.581Z,3.50
2022-09-21T11:59:48.643Z,3.10
2022-09-21T12:00:48.616Z,3.50
2022-09-21T12:01:48.603Z,3.30
2022-09-21T12:02:48.717Z,3.80
2022-09-21T12:03:48.596Z,3.50
2022-09-21T12:04:48.586Z,2.00
2022-09-21T12:05:48.587Z,3.60
2022-09-21T12:06:48.627Z,4.60
2022-09-21T12:07:48.547Z,5.10
2022-09-21T12:08:48.547Z,2.70
2022-09-21T12:09:48.547Z,5.10
2022-09-21T12:10:48.549Z,4.20
2022-09-21T12:11:48.513Z,3.50
2022-09-21T12:12:48.638Z,2.90
2022-09-21T12:13:48.681Z,6.40
2022-09-21T12:14:48.490Z,3.90
2022-09-21T12:15:48.481Z,3.20
2022-09-21T12:16:48.498Z,5.10
2022-09-21T12:17:48.460Z,4.20
2022-09-21T12:18:48.484Z,2.50
2022-09-21T12:19:48.444Z,4.80
2022-09-21T12:20:48.447Z,4.40
2022-09-21T12:21:48.434Z,2.80
2022-09-21T12:22:48.476Z,5.40
2022-09-21T12:23:48.405Z,3.80
2022-09-21T12:24:48.406Z,3.20
2022-09-21T12:25:48.376Z,3.50
2022-09-21T12:26:48.386Z,4.10
2022-09-21T12:27:48.359Z,3.90
2022-09-21T12:28:48.370Z,1.60
2022-09-21T12:29:48.349Z,2.20
2022-09-21T12:30:48.425Z,4.60
2022-09-21T12:31:48.321Z,3.70
2022-09-21T12:32:48.327Z,3.40
2022-09-21T12:33:48.300Z,6.00
2022-09-21T12:34:48.312Z,2.20
2022-09-21T12:35:48.389Z,2.80
2022-09-21T12:36:48.282Z,4.60
2022-09-21T12:37:48.264Z,3.80
2022-09-21T12:38:48.274Z,2.50
2022-09-21T12:39:48.253Z,2.80
2022-09-21T12:40:48.355Z,3.00
2022-09-21T12:41:48.236Z,2.40
2022-09-21T12:42:48.215Z,4.40
2022-09-21T12:43:48.236Z,1.90
2022-09-21T12:44:48.213Z,2.80
2022-09-21T12:45:48.241Z,2.70
2022-09-21T12:46:50.975Z,2.60
2022-09-21T12:47:48.197Z,3.10
2022-09-21T12:48:48.167Z,3.60
2022-09-21T12:49:48.164Z,2.50
2022-09-21T12:50:48.150Z,3.10
2022-09-21T12:51:48.132Z,2.00
2022-09-21T12:52:48.121Z,3.70
2022-09-21T12:53:50.911Z,5.30
2022-09-21T12:54:48.122Z,2.30
2022-09-21T12:55:48.123Z,3.10
2022-09-21T12:56:48.098Z,2.50
2022-09-21T12:58:04.428Z,4.40
2022-09-21T12:58:49.148Z,6.40
2022-09-21T12:59:48.065Z,2.70
2022-09-21T13:00:48.045Z,3.40
2022-09-21T13:01:48.354Z,2.70
2022-09-21T13:02:48.043Z,4.00